sensor_id;sensor_type;location;lat;lon;timestamp;pressure;altitude;pressure_sealevel;temperature;humidity
28306;BME280;7516;43.570;1.448;2023-03-04T00:00:55;100279.19;;;4.23;91.61
28306;BME280;7516;43.570;1.448;2023-03-04T00:03:24;100274.84;;;4.24;91.79
28306;BME280;7516;43.570;1.448;2023-03-04T00:05:51;100274.97;;;4.22;91.32
28306;BME280;7516;43.570;1.448;2023-03-04T00:08:18;100281.94;;;4.22;92.15
28306;BME280;7516;43.570;1.448;2023-03-04T00:10:46;100266.47;;;4.20;92.41
28306;BME280;7516;43.570;1.448;2023-03-04T00:13:13;100278.25;;;4.24;91.96
28306;BME280;7516;43.570;1.448;2023-03-04T00:15:42;100265.28;;;4.24;92.78
28306;BME280;7516;43.570;1.448;2023-03-04T00:18:09;100270.25;;;4.27;91.85
28306;BME280;7516;43.570;1.448;2023-03-04T00:20:38;100276.25;;;4.28;93.03
28306;BME280;7516;43.570;1.448;2023-03-04T00:23:05;100273.78;;;4.26;92.94
28306;BME280;7516;43.570;1.448;2023-03-04T00:25:33;100278.97;;;4.26;93.00
28306;BME280;7516;43.570;1.448;2023-03-04T00:28:00;100281.44;;;4.28;92.33
28306;BME280;7516;43.570;1.448;2023-03-04T00:30:28;100280.63;;;4.27;92.57
28306;BME280;7516;43.570;1.448;2023-03-04T00:32:55;100280.63;;;4.27;92.77
28306;BME280;7516;43.570;1.448;2023-03-04T00:35:23;100275.53;;;4.26;92.55
28306;BME280;7516;43.570;1.448;2023-03-04T00:37:51;100282.75;;;4.22;92.51
28306;BME280;7516;43.570;1.448;2023-03-04T00:40:19;100275.09;;;4.21;92.08
28306;BME280;7516;43.570;1.448;2023-03-04T00:42:46;100271.78;;;4.19;92.42
28306;BME280;7516;43.570;1.448;2023-03-04T00:45:14;100271.88;;;4.17;92.33
28306;BME280;7516;43.570;1.448;2023-03-04T00:47:41;100270.94;;;4.18;92.27
28306;BME280;7516;43.570;1.448;2023-03-04T00:50:10;100286.50;;;4.18;92.72
28306;BME280;7516;43.570;1.448;2023-03-04T00:52:37;100281.31;;;4.18;92.63
28306;BME280;7516;43.570;1.448;2023-03-04T00:55:10;100272.81;;;4.16;93.15
28306;BME280;7516;43.570;1.448;2023-03-04T00:57:38;100275.69;;;4.13;92.45
28306;BME280;7516;43.570;1.448;2023-03-04T01:00:06;100276.63;;;4.12;93.12
28306;BME280;7516;43.570;1.448;2023-03-04T01:02:34;100272.47;;;4.09;92.95
28306;BME280;7516;43.570;1.448;2023-03-04T01:05:02;100275.91;;;4.10;92.90
28306;BME280;7516;43.570;1.448;2023-03-04T01:07:29;100268.22;;;4.08;93.75
28306;BME280;7516;43.570;1.448;2023-03-04T01:09:57;100268.94;;;4.10;93.96
28306;BME280;7516;43.570;1.448;2023-03-04T01:12:25;100271.75;;;4.07;93.06
28306;BME280;7516;43.570;1.448;2023-03-04T01:14:53;100262.44;;;4.05;93.46
28306;BME280;7516;43.570;1.448;2023-03-04T01:17:20;100264.34;;;4.03;94.10
28306;BME280;7516;43.570;1.448;2023-03-04T01:19:48;100261.75;;;4.03;93.84
28306;BME280;7516;43.570;1.448;2023-03-04T01:22:15;100260.94;;;4.02;93.73
28306;BME280;7516;43.570;1.448;2023-03-04T01:24:44;100266.94;;;4.03;94.03
28306;BME280;7516;43.570;1.448;2023-03-04T01:27:12;100263.63;;;4.01;94.26
28306;BME280;7516;43.570;1.448;2023-03-04T01:29:40;100261.03;;;4.01;93.79
28306;BME280;7516;43.570;1.448;2023-03-04T01:32:08;100263.63;;;4.01;93.75
28306;BME280;7516;43.570;1.448;2023-03-04T01:34:35;100251.59;;;4.00;94.46
28306;BME280;7516;43.570;1.448;2023-03-04T01:37:03;100253.25;;;4.01;94.15
28306;BME280;7516;43.570;1.448;2023-03-04T01:39:30;100254.91;;;4.02;94.25
28306;BME280;7516;43.570;1.448;2023-03-04T01:41:58;100243.84;;;4.00;93.90
28306;BME280;7516;43.570;1.448;2023-03-04T01:44:26;100248.28;;;3.98;94.47
28306;BME280;7516;43.570;1.448;2023-03-04T01:46:55;100248.41;;;3.96;94.13
28306;BME280;7516;43.570;1.448;2023-03-04T01:49:23;100237.56;;;3.91;94.24
28306;BME280;7516;43.570;1.448;2023-03-04T01:51:52;100243.81;;;3.89;94.99
28306;BME280;7516;43.570;1.448;2023-03-04T01:54:21;100234.53;;;3.86;94.78
28306;BME280;7516;43.570;1.448;2023-03-04T01:56:50;100238.06;;;3.85;94.91
28306;BME280;7516;43.570;1.448;2023-03-04T01:59:20;100238.16;;;3.84;94.95
28306;BME280;7516;43.570;1.448;2023-03-04T02:01:49;100235.56;;;3.84;95.81
28306;BME280;7516;43.570;1.448;2023-03-04T02:04:21;100234.97;;;3.80;96.14
28306;BME280;7516;43.570;1.448;2023-03-04T02:06:50;100230.88;;;3.77;95.96
28306;BME280;7516;43.570;1.448;2023-03-04T02:09:18;100232.75;;;3.75;95.84
28306;BME280;7516;43.570;1.448;2023-03-04T02:11:47;100224.03;;;3.76;96.30
28306;BME280;7516;43.570;1.448;2023-03-04T02:14:16;100229.22;;;3.76;95.81
28306;BME280;7516;43.570;1.448;2023-03-04T02:16:44;100225.78;;;3.76;95.71
28306;BME280;7516;43.570;1.448;2023-03-04T02:19:15;100220.72;;;3.74;96.42
28306;BME280;7516;43.570;1.448;2023-03-04T02:21:47;100218.22;;;3.73;97.01
28306;BME280;7516;43.570;1.448;2023-03-04T02:24:18;100214.00;;;3.72;96.74
28306;BME280;7516;43.570;1.448;2023-03-04T02:26:48;100214.09;;;3.70;96.64
28306;BME280;7516;43.570;1.448;2023-03-04T02:29:16;100216.00;;;3.68;96.27
28306;BME280;7516;43.570;1.448;2023-03-04T02:31:46;100217.78;;;3.68;96.57
28306;BME280;7516;43.570;1.448;2023-03-04T02:34:16;100210.09;;;3.66;96.17
28306;BME280;7516;43.570;1.448;2023-03-04T02:36:45;100214.56;;;3.64;96.50
28306;BME280;7516;43.570;1.448;2023-03-04T02:39:22;100218.22;;;3.62;97.28
28306;BME280;7516;43.570;1.448;2023-03-04T02:41:54;100202.66;;;3.62;96.72
28306;BME280;7516;43.570;1.448;2023-03-04T02:44:23;100195.72;;;3.62;96.94
28306;BME280;7516;43.570;1.448;2023-03-04T02:46:52;100195.72;;;3.62;97.13
28306;BME280;7516;43.570;1.448;2023-03-04T02:49:20;100195.72;;;3.62;96.76
28306;BME280;7516;43.570;1.448;2023-03-04T02:51:50;100195.97;;;3.59;96.66
28306;BME280;7516;43.570;1.448;2023-03-04T02:54:21;100197.63;;;3.60;97.24
28306;BME280;7516;43.570;1.448;2023-03-04T02:56:52;100189.13;;;3.58;97.24
28306;BME280;7516;43.570;1.448;2023-03-04T02:59:20;100189.34;;;3.55;98.06
28306;BME280;7516;43.570;1.448;2023-03-04T03:01:49;100185.94;;;3.55;97.63
28306;BME280;7516;43.570;1.448;2023-03-04T03:04:20;100186.03;;;3.53;97.16
28306;BME280;7516;43.570;1.448;2023-03-04T03:06:48;100185.38;;;3.51;98.11
28306;BME280;7516;43.570;1.448;2023-03-04T03:09:16;100178.53;;;3.50;96.94
28306;BME280;7516;43.570;1.448;2023-03-04T03:11:43;100182.06;;;3.49;96.80
28306;BME280;7516;43.570;1.448;2023-03-04T03:14:12;100186.53;;;3.47;97.77
28306;BME280;7516;43.570;1.448;2023-03-04T03:16:40;100185.69;;;3.47;96.96
28306;BME280;7516;43.570;1.448;2023-03-04T03:19:08;100185.91;;;3.44;97.38
28306;BME280;7516;43.570;1.448;2023-03-04T03:21:35;100187.81;;;3.42;98.15
28306;BME280;7516;43.570;1.448;2023-03-04T03:24:03;100193.00;;;3.42;97.42
28306;BME280;7516;43.570;1.448;2023-03-04T03:26:30;100200.03;;;3.39;97.86
28306;BME280;7516;43.570;1.448;2023-03-04T03:28:58;100191.56;;;3.37;98.13
28306;BME280;7516;43.570;1.448;2023-03-04T03:31:27;100199.44;;;3.36;98.26
28306;BME280;7516;43.570;1.448;2023-03-04T03:33:54;100188.38;;;3.34;98.24
28306;BME280;7516;43.570;1.448;2023-03-04T03:36:22;100184.25;;;3.31;97.81
28306;BME280;7516;43.570;1.448;2023-03-04T03:38:49;100195.44;;;3.32;98.19
28306;BME280;7516;43.570;1.448;2023-03-04T03:41:17;100195.66;;;3.29;97.25
28306;BME280;7516;43.570;1.448;2023-03-04T03:43:47;100193.28;;;3.26;97.04
28306;BME280;7516;43.570;1.448;2023-03-04T03:46:17;100190.94;;;3.23;98.21
28306;BME280;7516;43.570;1.448;2023-03-04T03:48:46;100185.75;;;3.23;97.38
28306;BME280;7516;43.570;1.448;2023-03-04T03:51:13;100182.34;;;3.22;98.07
28306;BME280;7516;43.570;1.448;2023-03-04T03:53:41;100195.28;;;3.22;98.49
28306;BME280;7516;43.570;1.448;2023-03-04T03:56:08;100186.59;;;3.23;97.65
28306;BME280;7516;43.570;1.448;2023-03-04T03:58:36;100184.81;;;3.24;98.34
28306;BME280;7516;43.570;1.448;2023-03-04T04:01:04;100187.41;;;3.24;97.74
28306;BME280;7516;43.570;1.448;2023-03-04T04:03:31;100181.31;;;3.25;98.05
28306;BME280;7516;43.570;1.448;2023-03-04T04:06:00;100177.75;;;3.26;98.51
28306;BME280;7516;43.570;1.448;2023-03-04T04:08:27;100186.22;;;3.28;98.39
28306;BME280;7516;43.570;1.448;2023-03-04T04:10:55;100177.53;;;3.29;98.07
28306;BME280;7516;43.570;1.448;2023-03-04T04:13:22;100177.63;;;3.27;98.18
28306;BME280;7516;43.570;1.448;2023-03-04T04:15:53;100181.16;;;3.26;99.12
28306;BME280;7516;43.570;1.448;2023-03-04T04:18:23;100182.13;;;3.25;99.30
28306;BME280;7516;43.570;1.448;2023-03-04T04:20:51;100185.66;;;3.24;98.23
28306;BME280;7516;43.570;1.448;2023-03-04T04:23:20;100183.06;;;3.24;99.28
28306;BME280;7516;43.570;1.448;2023-03-04T04:25:47;100185.50;;;3.26;98.52
28306;BME280;7516;43.570;1.448;2023-03-04T04:28:15;100181.31;;;3.25;99.38
28306;BME280;7516;43.570;1.448;2023-03-04T04:30:42;100177.75;;;3.26;98.34
28306;BME280;7516;43.570;1.448;2023-03-04T04:33:10;100171.78;;;3.25;99.10
28306;BME280;7516;43.570;1.448;2023-03-04T04:35:37;100172.56;;;3.26;99.00
28306;BME280;7516;43.570;1.448;2023-03-04T04:38:07;100171.63;;;3.27;99.38
28306;BME280;7516;43.570;1.448;2023-03-04T04:40:36;100170.69;;;3.28;98.50
28306;BME280;7516;43.570;1.448;2023-03-04T04:43:04;100169.88;;;3.27;99.76
28306;BME280;7516;43.570;1.448;2023-03-04T04:45:31;100172.56;;;3.26;98.64
28306;BME280;7516;43.570;1.448;2023-03-04T04:48:00;100167.63;;;3.23;100.00
28306;BME280;7516;43.570;1.448;2023-03-04T04:50:27;100169.50;;;3.21;98.72
28306;BME280;7516;43.570;1.448;2023-03-04T04:52:55;100170.44;;;3.20;99.93
28306;BME280;7516;43.570;1.448;2023-03-04T04:55:22;100168.69;;;3.20;100.00
28306;BME280;7516;43.570;1.448;2023-03-04T04:57:51;100176.34;;;3.22;99.30
28306;BME280;7516;43.570;1.448;2023-03-04T05:00:19;100175.41;;;3.23;100.00
28306;BME280;7516;43.570;1.448;2023-03-04T05:02:47;100174.47;;;3.24;100.00
28306;BME280;7516;43.570;1.448;2023-03-04T05:05:14;100174.47;;;3.24;100.00
28306;BME280;7516;43.570;1.448;2023-03-04T05:07:42;100179.66;;;3.24;100.00
28306;BME280;7516;43.570;1.448;2023-03-04T05:10:10;100177.16;;;3.22;100.00
28306;BME280;7516;43.570;1.448;2023-03-04T05:12:37;100178.00;;;3.23;99.90
28306;BME280;7516;43.570;1.448;2023-03-04T05:15:07;100178.09;;;3.21;100.00
28306;BME280;7516;43.570;1.448;2023-03-04T05:17:34;100178.00;;;3.23;99.93
28306;BME280;7516;43.570;1.448;2023-03-04T05:20:02;100179.41;;;3.27;100.00
28306;BME280;7516;43.570;1.448;2023-03-04T05:22:32;100184.16;;;3.33;100.00
28306;BME280;7516;43.570;1.448;2023-03-04T05:25:00;100183.69;;;3.39;100.00
28306;BME280;7516;43.570;1.448;2023-03-04T05:27:27;100180.63;;;3.45;100.00
28306;BME280;7516;43.570;1.448;2023-03-04T05:29:55;100194.75;;;3.52;100.00
28306;BME280;7516;43.570;1.448;2023-03-04T05:32:27;100189.13;;;3.58;100.00
28306;BME280;7516;43.570;1.448;2023-03-04T05:34:55;100185.25;;;3.64;100.00
28306;BME280;7516;43.570;1.448;2023-03-04T05:37:22;100187.50;;;3.68;100.00
28306;BME280;7516;43.570;1.448;2023-03-04T05:39:50;100184.91;;;3.68;100.00
28306;BME280;7516;43.570;1.448;2023-03-04T05:42:17;100187.13;;;3.73;100.00
28306;BME280;7516;43.570;1.448;2023-03-04T05:44:44;100187.75;;;3.76;100.00
28306;BME280;7516;43.570;1.448;2023-03-04T05:47:12;100194.31;;;3.81;100.00
28306;BME280;7516;43.570;1.448;2023-03-04T05:49:41;100202.59;;;3.86;100.00
28306;BME280;7516;43.570;1.448;2023-03-04T05:52:09;100197.16;;;3.89;100.00
28306;BME280;7516;43.570;1.448;2023-03-04T05:54:37;100201.88;;;3.95;100.00
28306;BME280;7516;43.570;1.448;2023-03-04T05:57:04;100191.16;;;3.99;100.00
28306;BME280;7516;43.570;1.448;2023-03-04T05:59:32;100203.63;;;4.05;100.00
28306;BME280;7516;43.570;1.448;2023-03-04T06:01:59;100205.06;;;4.09;100.00
28306;BME280;7516;43.570;1.448;2023-03-04T06:04:27;100205.66;;;4.13;100.00
28306;BME280;7516;43.570;1.448;2023-03-04T06:06:56;100208.94;;;4.15;100.00
28306;BME280;7516;43.570;1.448;2023-03-04T06:09:23;100213.06;;;4.18;100.00
28306;BME280;7516;43.570;1.448;2023-03-04T06:11:51;100207.78;;;4.19;100.00
28306;BME280;7516;43.570;1.448;2023-03-04T06:14:18;100219.91;;;4.19;100.00
28306;BME280;7516;43.570;1.448;2023-03-04T06:16:46;100219.81;;;4.20;100.00
28306;BME280;7516;43.570;1.448;2023-03-04T06:19:13;100223.69;;;4.26;100.00
28306;BME280;7516;43.570;1.448;2023-03-04T06:21:40;100212.47;;;4.25;100.00
28306;BME280;7516;43.570;1.448;2023-03-04T06:24:09;100220.75;;;4.30;100.00
28306;BME280;7516;43.570;1.448;2023-03-04T06:26:37;100211.03;;;4.32;100.00
28306;BME280;7516;43.570;1.448;2023-03-04T06:29:07;100223.78;;;4.35;100.00
28306;BME280;7516;43.570;1.448;2023-03-04T06:31:34;100226.84;;;4.40;100.00
28306;BME280;7516;43.570;1.448;2023-03-04T06:34:02;100232.72;;;4.42;100.00
28306;BME280;7516;43.570;1.448;2023-03-04T06:36:29;100242.88;;;4.45;100.00
28306;BME280;7516;43.570;1.448;2023-03-04T06:38:57;100244.53;;;4.46;100.00
28306;BME280;7516;43.570;1.448;2023-03-04T06:41:26;100244.28;;;4.49;100.00
28306;BME280;7516;43.570;1.448;2023-03-04T06:43:53;100250.19;;;4.51;100.00
28306;BME280;7516;43.570;1.448;2023-03-04T06:46:21;100249.22;;;4.52;100.00
28306;BME280;7516;43.570;1.448;2023-03-04T06:48:49;100254.44;;;4.52;100.00
28306;BME280;7516;43.570;1.448;2023-03-04T06:51:16;100255.97;;;4.55;100.00
28306;BME280;7516;43.570;1.448;2023-03-04T06:53:44;100261.03;;;4.57;100.00
28306;BME280;7516;43.570;1.448;2023-03-04T06:56:13;100261.03;;;4.57;100.00
28306;BME280;7516;43.570;1.448;2023-03-04T06:58:42;100265.97;;;4.60;100.00
28306;BME280;7516;43.570;1.448;2023-03-04T07:01:14;100267.84;;;4.58;100.00
28306;BME280;7516;43.570;1.448;2023-03-04T07:03:42;100273.75;;;4.60;100.00
28306;BME280;7516;43.570;1.448;2023-03-04T07:06:10;100276.94;;;4.63;100.00
28306;BME280;7516;43.570;1.448;2023-03-04T07:08:39;100279.28;;;4.66;100.00
28306;BME280;7516;43.570;1.448;2023-03-04T07:11:07;100282.47;;;4.70;100.00
28306;BME280;7516;43.570;1.448;2023-03-04T07:13:35;100287.44;;;4.73;100.00
28306;BME280;7516;43.570;1.448;2023-03-04T07:16:06;100284.56;;;4.76;100.00
28306;BME280;7516;43.570;1.448;2023-03-04T07:18:34;100279.16;;;4.79;100.00
28306;BME280;7516;43.570;1.448;2023-03-04T07:21:02;100278.31;;;4.78;100.00
28306;BME280;7516;43.570;1.448;2023-03-04T07:23:30;100273.84;;;4.80;100.00
28306;BME280;7516;43.570;1.448;2023-03-04T07:25:58;100290.97;;;4.83;100.00
28306;BME280;7516;43.570;1.448;2023-03-04T07:28:25;100295.19;;;4.84;100.00
28306;BME280;7516;43.570;1.448;2023-03-04T07:30:53;100282.69;;;4.89;100.00
28306;BME280;7516;43.570;1.448;2023-03-04T07:33:22;100294.22;;;4.96;100.00
28306;BME280;7516;43.570;1.448;2023-03-04T07:35:57;100298.25;;;5.00;100.00
28306;BME280;7516;43.570;1.448;2023-03-04T07:38:25;100294.56;;;5.03;100.00
28306;BME280;7516;43.570;1.448;2023-03-04T07:40:55;100303.88;;;5.05;100.00
28306;BME280;7516;43.570;1.448;2023-03-04T07:43:22;100301.28;;;5.05;100.00
28306;BME280;7516;43.570;1.448;2023-03-04T07:45:50;100300.34;;;5.06;100.00
28306;BME280;7516;43.570;1.448;2023-03-04T07:48:17;100312.25;;;5.09;100.00
28306;BME280;7516;43.570;1.448;2023-03-04T07:50:46;100311.44;;;5.08;100.00
28306;BME280;7516;43.570;1.448;2023-03-04T07:53:14;100317.09;;;5.13;100.00
28306;BME280;7516;43.570;1.448;2023-03-04T07:55:41;100313.53;;;5.14;100.00
28306;BME280;7516;43.570;1.448;2023-03-04T07:58:09;100315.19;;;5.15;100.00
28306;BME280;7516;43.570;1.448;2023-03-04T08:00:36;100316.59;;;5.19;100.00
28306;BME280;7516;43.570;1.448;2023-03-04T08:03:06;100318.59;;;5.27;100.00
28306;BME280;7516;43.570;1.448;2023-03-04T08:05:33;100313.25;;;5.28;100.00
28306;BME280;7516;43.570;1.448;2023-03-04T08:08:02;100314.78;;;5.31;100.00
28306;BME280;7516;43.570;1.448;2023-03-04T08:10:30;100319.75;;;5.34;100.00
28306;BME280;7516;43.570;1.448;2023-03-04T08:12:57;100313.44;;;5.37;100.00
28306;BME280;7516;43.570;1.448;2023-03-04T08:15:25;100314.28;;;5.37;100.00
28306;BME280;7516;43.570;1.448;2023-03-04T08:17:52;100316.28;;;5.45;100.00
28306;BME280;7516;43.570;1.448;2023-03-04T08:20:20;100320.03;;;5.52;100.00
28306;BME280;7516;43.570;1.448;2023-03-04T08:22:47;100311.84;;;5.56;100.00
28306;BME280;7516;43.570;1.448;2023-03-04T08:25:16;100315.97;;;5.59;100.00
28306;BME280;7516;43.570;1.448;2023-03-04T08:27:44;100315.59;;;5.63;100.00
28306;BME280;7516;43.570;1.448;2023-03-04T08:30:12;100315.47;;;5.65;100.00
28306;BME280;7516;43.570;1.448;2023-03-04T08:32:39;100316.75;;;5.71;100.00
28306;BME280;7516;43.570;1.448;2023-03-04T08:35:07;100324.16;;;5.75;100.00
28306;BME280;7516;43.570;1.448;2023-03-04T08:37:35;100314.22;;;5.80;100.00
28306;BME280;7516;43.570;1.448;2023-03-04T08:40:02;100311.09;;;5.86;100.00
28306;BME280;7516;43.570;1.448;2023-03-04T08:42:31;100326.22;;;5.92;100.00
28306;BME280;7516;43.570;1.448;2023-03-04T08:44:59;100320.50;;;5.98;100.00
28306;BME280;7516;43.570;1.448;2023-03-04T08:47:26;100317.66;;;6.01;100.00
28306;BME280;7516;43.570;1.448;2023-03-04T08:49:54;100306.72;;;6.08;100.00
28306;BME280;7516;43.570;1.448;2023-03-04T08:52:23;100312.13;;;6.16;100.00
28306;BME280;7516;43.570;1.448;2023-03-04T08:54:51;100311.88;;;6.19;100.00
28306;BME280;7516;43.570;1.448;2023-03-04T08:57:18;100309.44;;;6.27;100.00
28306;BME280;7516;43.570;1.448;2023-03-04T08:59:47;100314.66;;;6.27;100.00
28306;BME280;7516;43.570;1.448;2023-03-04T09:02:14;100310.84;;;6.31;100.00
28306;BME280;7516;43.570;1.448;2023-03-04T09:04:42;100314.69;;;6.36;100.00
28306;BME280;7516;43.570;1.448;2023-03-04T09:07:09;100311.56;;;6.42;100.00
28306;BME280;7516;43.570;1.448;2023-03-04T09:09:37;100315.31;;;6.50;100.00
28306;BME280;7516;43.570;1.448;2023-03-04T09:12:05;100319.41;;;6.52;100.00
28306;BME280;7516;43.570;1.448;2023-03-04T09:14:33;100312.75;;;6.59;100.00
28306;BME280;7516;43.570;1.448;2023-03-04T09:17:02;100312.91;;;6.67;100.00
28306;BME280;7516;43.570;1.448;2023-03-04T09:19:30;100310.97;;;6.69;100.00
28306;BME280;7516;43.570;1.448;2023-03-04T09:21:58;100317.59;;;6.73;100.00
28306;BME280;7516;43.570;1.448;2023-03-04T09:24:25;100324.44;;;6.74;100.00
28306;BME280;7516;43.570;1.448;2023-03-04T09:26:54;100320.59;;;6.78;100.00
28306;BME280;7516;43.570;1.448;2023-03-04T09:29:22;100320.34;;;6.82;100.00
28306;BME280;7516;43.570;1.448;2023-03-04T09:31:50;100316.25;;;6.89;100.00
28306;BME280;7516;43.570;1.448;2023-03-04T09:34:19;100311.31;;;6.95;100.00
28306;BME280;7516;43.570;1.448;2023-03-04T09:36:46;100318.63;;;7.01;100.00
28306;BME280;7516;43.570;1.448;2023-03-04T09:39:14;100316.56;;;7.05;100.00
28306;BME280;7516;43.570;1.448;2023-03-04T09:41:43;100317.00;;;7.10;100.00
28306;BME280;7516;43.570;1.448;2023-03-04T09:44:21;100316.44;;;7.16;100.00
28306;BME280;7516;43.570;1.448;2023-03-04T09:46:50;100316.19;;;7.19;100.00
28306;BME280;7516;43.570;1.448;2023-03-04T09:49:20;100316.19;;;7.29;100.00
28306;BME280;7516;43.570;1.448;2023-03-04T09:51:54;100320.44;;;7.39;100.00
28306;BME280;7516;43.570;1.448;2023-03-04T09:54:38;100317.69;;;7.50;100.00
28306;BME280;7516;43.570;1.448;2023-03-04T09:57:20;100319.09;;;7.64;100.00
28306;BME280;7516;43.570;1.448;2023-03-04T09:59:55;100312.22;;;7.82;100.00
28306;BME280;7516;43.570;1.448;2023-03-04T10:02:30;100312.16;;;7.92;100.00
28306;BME280;7516;43.570;1.448;2023-03-04T10:05:04;100311.31;;;8.01;100.00
28306;BME280;7516;43.570;1.448;2023-03-04T10:07:36;100311.31;;;8.01;100.00
28306;BME280;7516;43.570;1.448;2023-03-04T10:10:11;100308.06;;;7.99;100.00
28306;BME280;7516;43.570;1.448;2023-03-04T10:12:44;100308.44;;;8.04;100.00
28306;BME280;7516;43.570;1.448;2023-03-04T10:15:22;100308.56;;;8.12;100.00
28306;BME280;7516;43.570;1.448;2023-03-04T10:17:57;100300.84;;;8.20;100.00
28306;BME280;7516;43.570;1.448;2023-03-04T10:20:37;100304.00;;;8.34;100.00
28306;BME280;7516;43.570;1.448;2023-03-04T10:23:14;100302.47;;;8.41;100.00
28306;BME280;7516;43.570;1.448;2023-03-04T10:25:44;100300.78;;;8.49;100.00
28306;BME280;7516;43.570;1.448;2023-03-04T10:28:16;100302.28;;;8.52;100.00
28306;BME280;7516;43.570;1.448;2023-03-04T10:30:48;100295.00;;;8.46;100.00
28306;BME280;7516;43.570;1.448;2023-03-04T10:33:20;100287.59;;;8.51;100.00
28306;BME280;7516;43.570;1.448;2023-03-04T10:35:52;100289.06;;;8.53;100.00
28306;BME280;7516;43.570;1.448;2023-03-04T10:38:23;100287.44;;;8.52;100.00
28306;BME280;7516;43.570;1.448;2023-03-04T10:40:51;100287.00;;;8.57;100.00
28306;BME280;7516;43.570;1.448;2023-03-04T10:43:20;100282.81;;;8.64;100.00
28306;BME280;7516;43.570;1.448;2023-03-04T10:45:48;100289.78;;;8.73;100.00
28306;BME280;7516;43.570;1.448;2023-03-04T10:48:23;100298.91;;;8.69;100.00
28306;BME280;7516;43.570;1.448;2023-03-04T10:50:52;100283.66;;;8.64;100.00
28306;BME280;7516;43.570;1.448;2023-03-04T10:53:29;100292.41;;;8.73;100.00
28306;BME280;7516;43.570;1.448;2023-03-04T10:55:58;100283.59;;;8.74;100.00
28306;BME280;7516;43.570;1.448;2023-03-04T10:58:26;100280.03;;;8.75;100.00
28306;BME280;7516;43.570;1.448;2023-03-04T11:01:02;100282.53;;;8.67;99.30
28306;BME280;7516;43.570;1.448;2023-03-04T11:03:33;100278.56;;;8.63;98.97
28306;BME280;7516;43.570;1.448;2023-03-04T11:06:11;100281.19;;;8.63;98.55
28306;BME280;7516;43.570;1.448;2023-03-04T11:08:42;100271.13;;;8.68;98.37
28306;BME280;7516;43.570;1.448;2023-03-04T11:11:26;100267.41;;;8.71;98.24
28306;BME280;7516;43.570;1.448;2023-03-04T11:14:01;100277.28;;;8.77;97.79
28306;BME280;7516;43.570;1.448;2023-03-04T11:16:32;100270.34;;;8.85;97.27
28306;BME280;7516;43.570;1.448;2023-03-04T11:19:03;100271.03;;;8.87;95.68
28306;BME280;7516;43.570;1.448;2023-03-04T11:21:36;100279.22;;;8.92;95.63
28306;BME280;7516;43.570;1.448;2023-03-04T11:24:12;100267.91;;;9.01;94.67
28306;BME280;7516;43.570;1.448;2023-03-04T11:26:44;100255.03;;;9.08;94.16
28306;BME280;7516;43.570;1.448;2023-03-04T11:29:14;100263.44;;;9.12;93.93
28306;BME280;7516;43.570;1.448;2023-03-04T11:31:48;100257.59;;;9.18;94.26
28306;BME280;7516;43.570;1.448;2023-03-04T11:34:28;100253.41;;;9.25;93.15
28306;BME280;7516;43.570;1.448;2023-03-04T11:37:05;100246.38;;;9.25;92.38
28306;BME280;7516;43.570;1.448;2023-03-04T11:39:36;100259.31;;;9.27;92.37
28306;BME280;7516;43.570;1.448;2023-03-04T11:42:12;100254.06;;;9.27;91.79
28306;BME280;7516;43.570;1.448;2023-03-04T11:44:43;100240.47;;;9.41;91.33
28306;BME280;7516;43.570;1.448;2023-03-04T11:47:20;100240.91;;;9.54;91.80
28306;BME280;7516;43.570;1.448;2023-03-04T11:55:56;100240.91;;;9.54;90.29
28306;BME280;7516;43.570;1.448;2023-03-04T12:01:36;100223.13;;;9.58;89.42
28306;BME280;7516;43.570;1.448;2023-03-04T12:07:24;100205.34;;;9.69;88.30
28306;BME280;7516;43.570;1.448;2023-03-04T12:10:19;100206.66;;;9.65;87.62
28306;BME280;7516;43.570;1.448;2023-03-04T12:13:08;100197.44;;;9.61;87.83
28306;BME280;7516;43.570;1.448;2023-03-04T12:15:42;100198.06;;;9.55;87.82
28306;BME280;7516;43.570;1.448;2023-03-04T12:18:32;100202.13;;;9.50;87.32
28306;BME280;7516;43.570;1.448;2023-03-04T12:21:18;100193.47;;;9.49;86.74
28306;BME280;7516;43.570;1.448;2023-03-04T12:24:05;100180.78;;;9.62;86.73
28306;BME280;7516;43.570;1.448;2023-03-04T12:26:45;100183.19;;;9.81;87.01
28306;BME280;7516;43.570;1.448;2023-03-04T12:29:19;100183.94;;;10.00;86.02
28306;BME280;7516;43.570;1.448;2023-03-04T12:31:52;100180.00;;;10.04;86.33
28306;BME280;7516;43.570;1.448;2023-03-04T12:34:32;100180.97;;;10.03;84.80
28306;BME280;7516;43.570;1.448;2023-03-04T12:37:16;100168.38;;;9.98;84.96
28306;BME280;7516;43.570;1.448;2023-03-04T12:39:56;100162.00;;;10.01;84.81
28306;BME280;7516;43.570;1.448;2023-03-04T12:42:39;100152.88;;;10.13;84.40
28306;BME280;7516;43.570;1.448;2023-03-04T12:45:19;100146.13;;;10.28;84.39
28306;BME280;7516;43.570;1.448;2023-03-04T12:47:56;100151.38;;;10.36;83.72
28306;BME280;7516;43.570;1.448;2023-03-04T12:50:36;100139.13;;;10.45;83.52
28306;BME280;7516;43.570;1.448;2023-03-04T12:53:15;100139.94;;;10.45;83.19
28306;BME280;7516;43.570;1.448;2023-03-04T12:55:47;100137.78;;;10.41;82.64
28306;BME280;7516;43.570;1.448;2023-03-04T12:58:19;100131.88;;;10.39;83.01
28306;BME280;7516;43.570;1.448;2023-03-04T13:00:54;100129.59;;;10.44;82.76
28306;BME280;7516;43.570;1.448;2023-03-04T13:03:35;100123.06;;;10.56;82.57
28306;BME280;7516;43.570;1.448;2023-03-04T13:06:18;100117.84;;;10.64;82.27
28306;BME280;7516;43.570;1.448;2023-03-04T13:08:58;100127.19;;;10.67;82.04
28306;BME280;7516;43.570;1.448;2023-03-04T13:11:49;100107.03;;;10.59;81.37
28306;BME280;7516;43.570;1.448;2023-03-04T13:14:30;100101.47;;;10.62;81.36
28306;BME280;7516;43.570;1.448;2023-03-04T13:16:59;100108.00;;;10.66;81.26
28306;BME280;7516;43.570;1.448;2023-03-04T13:19:46;100099.00;;;10.61;81.15
28306;BME280;7516;43.570;1.448;2023-03-04T13:22:34;100101.63;;;10.61;80.68
28306;BME280;7516;43.570;1.448;2023-03-04T13:25:36;100092.94;;;10.60;80.24
28306;BME280;7516;43.570;1.448;2023-03-04T13:28:20;100100.00;;;10.68;80.02
28306;BME280;7516;43.570;1.448;2023-03-04T13:31:16;100110.47;;;10.76;79.60
28306;BME280;7516;43.570;1.448;2023-03-04T13:33:56;100099.00;;;10.77;79.40